sensor_id;sensor_type;location;lat;lon;timestamp;temperature;humidity
11609;DHT22;5860;52.018;8.536;2024-01-06T00:00:17;6.10;99.90
11609;DHT22;5860;52.018;8.536;2024-01-06T00:02:44;6.10;99.90
11609;DHT22;5860;52.018;8.536;2024-01-06T00:05:12;6.10;99.90
11609;DHT22;5860;52.018;8.536;2024-01-06T00:07:39;6.10;99.90
11609;DHT22;5860;52.018;8.536;2024-01-06T00:10:07;6.10;99.90
11609;DHT22;5860;52.018;8.536;2024-01-06T00:12:34;6.00;99.90
11609;DHT22;5860;52.018;8.536;2024-01-06T00:15:01;6.10;99.90
11609;DHT22;5860;52.018;8.536;2024-01-06T00:17:28;6.00;99.90
11609;DHT22;5860;52.018;8.536;2024-01-06T00:19:55;6.00;99.90
11609;DHT22;5860;52.018;8.536;2024-01-06T00:22:22;5.90;99.90
11609;DHT22;5860;52.018;8.536;2024-01-06T00:24:49;5.90;99.90
11609;DHT22;5860;52.018;8.536;2024-01-06T00:27:16;5.90;99.90
11609;DHT22;5860;52.018;8.536;2024-01-06T00:29:43;5.90;99.90
11609;DHT22;5860;52.018;8.536;2024-01-06T00:32:10;5.80;99.90
11609;DHT22;5860;52.018;8.536;2024-01-06T00:34:37;5.80;99.90
11609;DHT22;5860;52.018;8.536;2024-01-06T00:37:04;5.70;99.90
11609;DHT22;5860;52.018;8.536;2024-01-06T00:39:31;5.80;99.90
11609;DHT22;5860;52.018;8.536;2024-01-06T00:41:57;5.90;99.90
11609;DHT22;5860;52.018;8.536;2024-01-06T00:44:24;5.80;99.90
11609;DHT22;5860;52.018;8.536;2024-01-06T00:46:51;5.90;99.90
11609;DHT22;5860;52.018;8.536;2024-01-06T00:49:18;5.80;99.90
11609;DHT22;5860;52.018;8.536;2024-01-06T00:51:45;5.80;99.90
11609;DHT22;5860;52.018;8.536;2024-01-06T00:54:12;5.80;99.90
11609;DHT22;5860;52.018;8.536;2024-01-06T00:56:42;5.80;99.90
11609;DHT22;5860;52.018;8.536;2024-01-06T00:59:09;5.80;99.90
11609;DHT22;5860;52.018;8.536;2024-01-06T01:01:36;5.90;99.90
11609;DHT22;5860;52.018;8.536;2024-01-06T01:04:03;5.90;99.90
11609;DHT22;5860;52.018;8.536;2024-01-06T01:06:33;5.90;99.90
11609;DHT22;5860;52.018;8.536;2024-01-06T01:09:00;5.90;99.90
11609;DHT22;5860;52.018;8.536;2024-01-06T01:11:27;5.90;99.90
11609;DHT22;5860;52.018;8.536;2024-01-06T01:13:54;5.90;99.90
11609;DHT22;5860;52.018;8.536;2024-01-06T01:16:21;5.90;99.90
11609;DHT22;5860;52.018;8.536;2024-01-06T01:18:48;5.90;99.90
11609;DHT22;5860;52.018;8.536;2024-01-06T01:21:15;5.90;99.90
11609;DHT22;5860;52.018;8.536;2024-01-06T01:23:42;5.90;99.90
11609;DHT22;5860;52.018;8.536;2024-01-06T01:26:09;5.90;99.90
11609;DHT22;5860;52.018;8.536;2024-01-06T01:28:36;5.90;99.90
11609;DHT22;5860;52.018;8.536;2024-01-06T01:31:03;5.90;99.90
11609;DHT22;5860;52.018;8.536;2024-01-06T01:33:30;5.90;99.90
11609;DHT22;5860;52.018;8.536;2024-01-06T01:35:57;5.90;99.90
11609;DHT22;5860;52.018;8.536;2024-01-06T01:38:28;5.90;99.90
11609;DHT22;5860;52.018;8.536;2024-01-06T01:40:54;5.80;99.90
11609;DHT22;5860;52.018;8.536;2024-01-06T01:43:21;5.90;99.90
11609;DHT22;5860;52.018;8.536;2024-01-06T01:45:53;5.90;99.90
11609;DHT22;5860;52.018;8.536;2024-01-06T01:48:21;6.00;99.90
11609;DHT22;5860;52.018;8.536;2024-01-06T01:50:50;5.80;99.90
11609;DHT22;5860;52.018;8.536;2024-01-06T01:53:18;5.90;99.90
11609;DHT22;5860;52.018;8.536;2024-01-06T01:55:45;5.90;99.90
11609;DHT22;5860;52.018;8.536;2024-01-06T01:58:14;5.80;99.90
11609;DHT22;5860;52.018;8.536;2024-01-06T02:00:41;5.70;99.90
11609;DHT22;5860;52.018;8.536;2024-01-06T02:03:09;5.70;99.90
11609;DHT22;5860;52.018;8.536;2024-01-06T02:05:38;5.70;99.90
11609;DHT22;5860;52.018;8.536;2024-01-06T02:08:05;5.70;99.90
11609;DHT22;5860;52.018;8.536;2024-01-06T02:10:32;5.70;99.90
11609;DHT22;5860;52.018;8.536;2024-01-06T02:13:08;5.70;99.90
11609;DHT22;5860;52.018;8.536;2024-01-06T02:15:35;5.60;99.90
11609;DHT22;5860;52.018;8.536;2024-01-06T02:18:03;5.60;99.90
11609;DHT22;5860;52.018;8.536;2024-01-06T02:20:30;5.60;99.90
11609;DHT22;5860;52.018;8.536;2024-01-06T02:22:57;5.60;99.90
11609;DHT22;5860;52.018;8.536;2024-01-06T02:25:27;5.60;99.90
11609;DHT22;5860;52.018;8.536;2024-01-06T02:27:53;5.60;99.90
11609;DHT22;5860;52.018;8.536;2024-01-06T02:30:20;5.60;99.90
11609;DHT22;5860;52.018;8.536;2024-01-06T02:32:47;5.60;99.90
11609;DHT22;5860;52.018;8.536;2024-01-06T02:35:14;5.70;99.90
11609;DHT22;5860;52.018;8.536;2024-01-06T02:37:41;5.40;99.90
11609;DHT22;5860;52.018;8.536;2024-01-06T02:40:08;5.40;99.90
11609;DHT22;5860;52.018;8.536;2024-01-06T02:42:35;5.40;99.90
11609;DHT22;5860;52.018;8.536;2024-01-06T02:45:03;5.40;99.90
11609;DHT22;5860;52.018;8.536;2024-01-06T02:47:30;5.40;99.90
11609;DHT22;5860;52.018;8.536;2024-01-06T02:49:56;5.40;99.90
11609;DHT22;5860;52.018;8.536;2024-01-06T02:52:23;5.30;99.90
11609;DHT22;5860;52.018;8.536;2024-01-06T02:54:50;5.30;99.90
11609;DHT22;5860;52.018;8.536;2024-01-06T02:57:18;5.30;99.90
11609;DHT22;5860;52.018;8.536;2024-01-06T02:59:45;5.40;99.90
11609;DHT22;5860;52.018;8.536;2024-01-06T03:02:12;5.40;99.90
11609;DHT22;5860;52.018;8.536;2024-01-06T03:04:38;5.40;99.90
11609;DHT22;5860;52.018;8.536;2024-01-06T03:07:05;5.40;99.90
11609;DHT22;5860;52.018;8.536;2024-01-06T03:09:32;5.40;99.90
11609;DHT22;5860;52.018;8.536;2024-01-06T03:11:59;5.50;99.90
11609;DHT22;5860;52.018;8.536;2024-01-06T03:14:26;5.50;99.90
11609;DHT22;5860;52.018;8.536;2024-01-06T03:16:53;5.50;99.90
11609;DHT22;5860;52.018;8.536;2024-01-06T03:19:20;5.50;99.90
11609;DHT22;5860;52.018;8.536;2024-01-06T03:21:47;5.60;99.90
11609;DHT22;5860;52.018;8.536;2024-01-06T03:24:13;5.50;99.90
11609;DHT22;5860;52.018;8.536;2024-01-06T03:26:40;5.50;99.90
11609;DHT22;5860;52.018;8.536;2024-01-06T03:29:07;5.50;99.90
11609;DHT22;5860;52.018;8.536;2024-01-06T03:31:34;5.60;99.90
11609;DHT22;5860;52.018;8.536;2024-01-06T03:34:01;5.60;99.90
11609;DHT22;5860;52.018;8.536;2024-01-06T03:36:28;5.50;99.90
11609;DHT22;5860;52.018;8.536;2024-01-06T03:38:55;5.60;99.90
11609;DHT22;5860;52.018;8.536;2024-01-06T03:41:22;5.60;99.90
11609;DHT22;5860;52.018;8.536;2024-01-06T03:43:49;5.60;99.90
11609;DHT22;5860;52.018;8.536;2024-01-06T03:46:16;5.60;99.90
11609;DHT22;5860;52.018;8.536;2024-01-06T03:48:43;5.60;99.90
11609;DHT22;5860;52.018;8.536;2024-01-06T03:51:11;5.60;99.90
11609;DHT22;5860;52.018;8.536;2024-01-06T03:53:39;5.60;99.90
11609;DHT22;5860;52.018;8.536;2024-01-06T03:56:07;5.60;99.90
11609;DHT22;5860;52.018;8.536;2024-01-06T03:58:34;5.70;99.90
11609;DHT22;5860;52.018;8.536;2024-01-06T04:01:01;5.60;99.90
11609;DHT22;5860;52.018;8.536;2024-01-06T04:03:28;5.70;99.90
11609;DHT22;5860;52.018;8.536;2024-01-06T04:05:55;5.60;99.90
11609;DHT22;5860;52.018;8.536;2024-01-06T04:08:22;5.60;99.90
11609;DHT22;5860;52.018;8.536;2024-01-06T04:10:49;5.60;99.90
11609;DHT22;5860;52.018;8.536;2024-01-06T04:13:16;5.60;99.90
11609;DHT22;5860;52.018;8.536;2024-01-06T04:15:43;5.60;99.90
11609;DHT22;5860;52.018;8.536;2024-01-06T04:18:09;5.60;99.90
11609;DHT22;5860;52.018;8.536;2024-01-06T04:20:37;5.60;99.90
11609;DHT22;5860;52.018;8.536;2024-01-06T04:23:04;5.60;99.90
11609;DHT22;5860;52.018;8.536;2024-01-06T04:25:30;5.60;99.90
11609;DHT22;5860;52.018;8.536;2024-01-06T04:27:57;5.60;99.90
11609;DHT22;5860;52.018;8.536;2024-01-06T04:30:24;5.60;99.90
11609;DHT22;5860;52.018;8.536;2024-01-06T04:32:52;5.60;99.90
11609;DHT22;5860;52.018;8.536;2024-01-06T04:35:20;5.60;99.90
11609;DHT22;5860;52.018;8.536;2024-01-06T04:37:47;5.50;99.90
11609;DHT22;5860;52.018;8.536;2024-01-06T04:40:14;5.50;99.90
11609;DHT22;5860;52.018;8.536;2024-01-06T04:42:41;5.60;99.90
11609;DHT22;5860;52.018;8.536;2024-01-06T04:45:08;5.50;99.90
11609;DHT22;5860;52.018;8.536;2024-01-06T04:47:35;5.60;99.90
11609;DHT22;5860;52.018;8.536;2024-01-06T04:50:02;5.60;99.90
11609;DHT22;5860;52.018;8.536;2024-01-06T04:52:29;5.60;99.90
11609;DHT22;5860;52.018;8.536;2024-01-06T04:54:56;5.50;99.90
11609;DHT22;5860;52.018;8.536;2024-01-06T04:57:23;5.60;99.90
11609;DHT22;5860;52.018;8.536;2024-01-06T04:59:50;5.60;99.90
11609;DHT22;5860;52.018;8.536;2024-01-06T05:02:17;5.60;99.90
11609;DHT22;5860;52.018;8.536;2024-01-06T05:04:44;5.60;99.90
11609;DHT22;5860;52.018;8.536;2024-01-06T05:07:10;5.50;99.90
11609;DHT22;5860;52.018;8.536;2024-01-06T05:09:37;5.60;99.90
11609;DHT22;5860;52.018;8.536;2024-01-06T05:12:04;5.50;99.90
11609;DHT22;5860;52.018;8.536;2024-01-06T05:14:31;5.50;99.90
11609;DHT22;5860;52.018;8.536;2024-01-06T05:16:58;5.50;99.90
11609;DHT22;5860;52.018;8.536;2024-01-06T05:19:25;5.50;99.90
11609;DHT22;5860;52.018;8.536;2024-01-06T05:21:52;5.50;99.90
11609;DHT22;5860;52.018;8.536;2024-01-06T05:24:20;5.50;99.90
11609;DHT22;5860;52.018;8.536;2024-01-06T05:26:47;5.50;99.90
11609;DHT22;5860;52.018;8.536;2024-01-06T05:29:13;5.50;99.90
11609;DHT22;5860;52.018;8.536;2024-01-06T05:31:40;5.40;99.90
11609;DHT22;5860;52.018;8.536;2024-01-06T05:34:07;5.40;99.90
11609;DHT22;5860;52.018;8.536;2024-01-06T05:36:34;5.30;99.90
11609;DHT22;5860;52.018;8.536;2024-01-06T05:39:01;5.40;99.90
11609;DHT22;5860;52.018;8.536;2024-01-06T05:41:28;5.30;99.90
11609;DHT22;5860;52.018;8.536;2024-01-06T05:43:55;5.30;99.90
11609;DHT22;5860;52.018;8.536;2024-01-06T05:46:23;5.30;99.90
11609;DHT22;5860;52.018;8.536;2024-01-06T05:48:50;5.30;99.90
11609;DHT22;5860;52.018;8.536;2024-01-06T05:51:18;5.20;99.90
11609;DHT22;5860;52.018;8.536;2024-01-06T05:53:44;5.20;99.90
11609;DHT22;5860;52.018;8.536;2024-01-06T05:56:11;5.20;99.90
11609;DHT22;5860;52.018;8.536;2024-01-06T05:58:38;5.10;99.90
11609;DHT22;5860;52.018;8.536;2024-01-06T06:01:05;5.10;99.90
11609;DHT22;5860;52.018;8.536;2024-01-06T06:03:32;5.10;99.90
11609;DHT22;5860;52.018;8.536;2024-01-06T06:05:59;5.10;99.90
11609;DHT22;5860;52.018;8.536;2024-01-06T06:08:26;5.10;99.90
11609;DHT22;5860;52.018;8.536;2024-01-06T06:10:53;5.00;99.90
11609;DHT22;5860;52.018;8.536;2024-01-06T06:13:28;5.00;99.90
11609;DHT22;5860;52.018;8.536;2024-01-06T06:15:56;4.90;99.90
11609;DHT22;5860;52.018;8.536;2024-01-06T06:18:23;5.00;99.90
11609;DHT22;5860;52.018;8.536;2024-01-06T06:20:50;5.00;99.90
11609;DHT22;5860;52.018;8.536;2024-01-06T06:23:17;5.00;99.90
11609;DHT22;5860;52.018;8.536;2024-01-06T06:25:44;5.00;99.90
11609;DHT22;5860;52.018;8.536;2024-01-06T06:28:10;5.00;99.90
11609;DHT22;5860;52.018;8.536;2024-01-06T06:30:37;5.00;99.90
11609;DHT22;5860;52.018;8.536;2024-01-06T06:33:04;4.90;99.90
11609;DHT22;5860;52.018;8.536;2024-01-06T06:35:31;4.90;99.90
11609;DHT22;5860;52.018;8.536;2024-01-06T06:37:58;4.80;99.90
11609;DHT22;5860;52.018;8.536;2024-01-06T06:40:25;4.80;99.90
11609;DHT22;5860;52.018;8.536;2024-01-06T06:42:51;4.80;99.90
11609;DHT22;5860;52.018;8.536;2024-01-06T06:45:18;4.70;99.90
11609;DHT22;5860;52.018;8.536;2024-01-06T06:47:49;4.60;99.90
11609;DHT22;5860;52.018;8.536;2024-01-06T06:50:17;4.60;99.90
11609;DHT22;5860;52.018;8.536;2024-01-06T06:52:44;4.60;99.90
11609;DHT22;5860;52.018;8.536;2024-01-06T06:55:11;4.70;99.90
11609;DHT22;5860;52.018;8.536;2024-01-06T06:57:38;4.60;99.90
11609;DHT22;5860;52.018;8.536;2024-01-06T07:00:06;4.60;99.90
11609;DHT22;5860;52.018;8.536;2024-01-06T07:02:36;4.60;99.90
11609;DHT22;5860;52.018;8.536;2024-01-06T07:05:03;4.60;99.90
11609;DHT22;5860;52.018;8.536;2024-01-06T07:07:34;4.50;99.90
11609;DHT22;5860;52.018;8.536;2024-01-06T07:10:01;4.50;99.90
11609;DHT22;5860;52.018;8.536;2024-01-06T07:12:29;4.60;99.90
11609;DHT22;5860;52.018;8.536;2024-01-06T07:14:57;4.40;99.90
11609;DHT22;5860;52.018;8.536;2024-01-06T07:17:25;4.40;99.90
11609;DHT22;5860;52.018;8.536;2024-01-06T07:19:52;4.50;99.90
11609;DHT22;5860;52.018;8.536;2024-01-06T07:22:20;4.50;99.90
11609;DHT22;5860;52.018;8.536;2024-01-06T07:24:47;4.40;99.90
11609;DHT22;5860;52.018;8.536;2024-01-06T07:27:14;4.40;99.90
11609;DHT22;5860;52.018;8.536;2024-01-06T07:29:41;4.50;99.90
11609;DHT22;5860;52.018;8.536;2024-01-06T07:32:08;4.40;99.90
11609;DHT22;5860;52.018;8.536;2024-01-06T07:34:35;4.50;99.90
11609;DHT22;5860;52.018;8.536;2024-01-06T07:37:02;4.40;99.90
11609;DHT22;5860;52.018;8.536;2024-01-06T07:39:29;4.40;99.90
11609;DHT22;5860;52.018;8.536;2024-01-06T07:41:56;4.40;99.90
11609;DHT22;5860;52.018;8.536;2024-01-06T07:44:23;4.40;99.90
11609;DHT22;5860;52.018;8.536;2024-01-06T07:46:52;4.30;99.90
11609;DHT22;5860;52.018;8.536;2024-01-06T07:49:19;4.40;99.90
11609;DHT22;5860;52.018;8.536;2024-01-06T07:51:46;4.50;99.90
11609;DHT22;5860;52.018;8.536;2024-01-06T07:54:13;4.40;99.90
11609;DHT22;5860;52.018;8.536;2024-01-06T07:56:40;4.40;99.90
11609;DHT22;5860;52.018;8.536;2024-01-06T07:59:07;4.40;99.90
11609;DHT22;5860;52.018;8.536;2024-01-06T08:01:34;4.40;99.90
11609;DHT22;5860;52.018;8.536;2024-01-06T08:04:00;4.30;99.90
11609;DHT22;5860;52.018;8.536;2024-01-06T08:06:28;4.40;99.90
11609;DHT22;5860;52.018;8.536;2024-01-06T08:08:55;4.40;99.90
11609;DHT22;5860;52.018;8.536;2024-01-06T08:11:22;4.40;99.90
11609;DHT22;5860;52.018;8.536;2024-01-06T08:13:49;4.40;99.90
11609;DHT22;5860;52.018;8.536;2024-01-06T08:16:15;4.30;99.90
11609;DHT22;5860;52.018;8.536;2024-01-06T08:18:43;4.30;99.90
11609;DHT22;5860;52.018;8.536;2024-01-06T08:21:10;4.10;99.90
11609;DHT22;5860;52.018;8.536;2024-01-06T08:23:37;4.10;99.90
11609;DHT22;5860;52.018;8.536;2024-01-06T08:26:04;4.00;99.90
11609;DHT22;5860;52.018;8.536;2024-01-06T08:28:33;3.90;99.90
11609;DHT22;5860;52.018;8.536;2024-01-06T08:31:00;3.90;99.90
11609;DHT22;5860;52.018;8.536;2024-01-06T08:33:27;3.90;99.90
11609;DHT22;5860;52.018;8.536;2024-01-06T08:35:54;4.00;99.90
11609;DHT22;5860;52.018;8.536;2024-01-06T08:38:21;3.90;99.90
11609;DHT22;5860;52.018;8.536;2024-01-06T08:40:49;3.90;99.90
11609;DHT22;5860;52.018;8.536;2024-01-06T08:43:17;3.80;99.90
11609;DHT22;5860;52.018;8.536;2024-01-06T08:45:45;3.80;99.90
11609;DHT22;5860;52.018;8.536;2024-01-06T08:48:12;3.80;99.90
11609;DHT22;5860;52.018;8.536;2024-01-06T08:50:40;3.90;99.90
11609;DHT22;5860;52.018;8.536;2024-01-06T08:53:07;3.80;99.90
11609;DHT22;5860;52.018;8.536;2024-01-06T08:55:34;3.90;99.90
11609;DHT22;5860;52.018;8.536;2024-01-06T08:58:00;3.80;99.90
11609;DHT22;5860;52.018;8.536;2024-01-06T09:00:27;3.80;99.90
11609;DHT22;5860;52.018;8.536;2024-01-06T09:02:55;3.80;99.90
11609;DHT22;5860;52.018;8.536;2024-01-06T09:05:21;3.70;99.90
11609;DHT22;5860;52.018;8.536;2024-01-06T09:07:48;3.60;99.90
11609;DHT22;5860;52.018;8.536;2024-01-06T09:10:21;3.70;99.90
11609;DHT22;5860;52.018;8.536;2024-01-06T09:12:48;3.60;99.90
11609;DHT22;5860;52.018;8.536;2024-01-06T09:15:15;3.60;99.90
11609;DHT22;5860;52.018;8.536;2024-01-06T09:17:41;3.70;99.90
11609;DHT22;5860;52.018;8.536;2024-01-06T09:20:09;3.70;99.90
11609;DHT22;5860;52.018;8.536;2024-01-06T09:22:36;3.70;99.90
11609;DHT22;5860;52.018;8.536;2024-01-06T09:25:03;3.80;99.90
11609;DHT22;5860;52.018;8.536;2024-01-06T09:27:30;3.70;99.90
11609;DHT22;5860;52.018;8.536;2024-01-06T09:29:57;3.60;99.90
11609;DHT22;5860;52.018;8.536;2024-01-06T09:32:24;3.50;99.90
11609;DHT22;5860;52.018;8.536;2024-01-06T09:34:51;3.50;99.90
11609;DHT22;5860;52.018;8.536;2024-01-06T09:37:18;3.60;99.90
11609;DHT22;5860;52.018;8.536;2024-01-06T09:39:45;3.70;99.90
11609;DHT22;5860;52.018;8.536;2024-01-06T09:42:12;3.80;99.90
11609;DHT22;5860;52.018;8.536;2024-01-06T09:44:39;3.70;99.90
11609;DHT22;5860;52.018;8.536;2024-01-06T09:47:06;3.70;99.90
11609;DHT22;5860;52.018;8.536;2024-01-06T09:49:34;3.60;99.90
11609;DHT22;5860;52.018;8.536;2024-01-06T09:52:14;3.60;99.90
11609;DHT22;5860;52.018;8.536;2024-01-06T09:54:46;3.60;99.90
11609;DHT22;5860;52.018;8.536;2024-01-06T09:57:16;3.50;99.90
11609;DHT22;5860;52.018;8.536;2024-01-06T09:59:46;3.50;99.90
11609;DHT22;5860;52.018;8.536;2024-01-06T10:02:15;3.60;99.90
11609;DHT22;5860;52.018;8.536;2024-01-06T10:04:45;3.60;99.90
11609;DHT22;5860;52.018;8.536;2024-01-06T10:07:12;3.60;99.90
11609;DHT22;5860;52.018;8.536;2024-01-06T10:09:41;3.60;99.90
11609;DHT22;5860;52.018;8.536;2024-01-06T10:12:11;3.70;99.90
11609;DHT22;5860;52.018;8.536;2024-01-06T10:14:38;3.70;99.90
11609;DHT22;5860;52.018;8.536;2024-01-06T10:17:06;3.70;99.90
11609;DHT22;5860;52.018;8.536;2024-01-06T10:19:37;3.80;99.90
11609;DHT22;5860;52.018;8.536;2024-01-06T10:22:05;3.70;99.90
11609;DHT22;5860;52.018;8.536;2024-01-06T10:24:37;3.70;99.90
11609;DHT22;5860;52.018;8.536;2024-01-06T10:27:04;3.70;99.90
11609;DHT22;5860;52.018;8.536;2024-01-06T10:29:31;3.70;99.90
11609;DHT22;5860;52.018;8.536;2024-01-06T10:31:59;3.70;99.90
11609;DHT22;5860;52.018;8.536;2024-01-06T10:34:26;3.70;99.90
11609;DHT22;5860;52.018;8.536;2024-01-06T10:36:53;3.80;99.90
11609;DHT22;5860;52.018;8.536;2024-01-06T10:39:20;3.80;99.90
11609;DHT22;5860;52.018;8.536;2024-01-06T10:41:49;3.70;99.90
11609;DHT22;5860;52.018;8.536;2024-01-06T10:44:16;3.70;99.90
11609;DHT22;5860;52.018;8.536;2024-01-06T10:46:44;3.60;99.90
11609;DHT22;5860;52.018;8.536;2024-01-06T10:49:12;3.70;99.90
11609;DHT22;5860;52.018;8.536;2024-01-06T10:51:40;3.70;99.90
11609;DHT22;5860;52.018;8.536;2024-01-06T10:54:08;3.60;99.90
11609;DHT22;5860;52.018;8.536;2024-01-06T10:56:37;3.50;99.90
11609;DHT22;5860;52.018;8.536;2024-01-06T10:59:08;3.40;99.90
11609;DHT22;5860;52.018;8.536;2024-01-06T11:01:36;3.40;99.90
11609;DHT22;5860;52.018;8.536;2024-01-06T11:04:05;3.50;99.90
11609;DHT22;5860;52.018;8.536;2024-01-06T11:06:33;3.50;99.90
11609;DHT22;5860;52.018;8.536;2024-01-06T11:11:36;3.40;99.90
11609;DHT22;5860;52.018;8.536;2024-01-06T11:14:25;3.40;99.90
11609;DHT22;5860;52.018;8.536;2024-01-06T11:16:53;3.40;99.90
11609;DHT22;5860;52.018;8.536;2024-01-06T11:22:24;3.40;99.90
11609;DHT22;5860;52.018;8.536;2024-01-06T11:24:55;3.50;99.90
11609;DHT22;5860;52.018;8.536;2024-01-06T11:27:27;3.60;99.90
11609;DHT22;5860;52.018;8.536;2024-01-06T11:29:59;3.60;99.90
11609;DHT22;5860;52.018;8.536;2024-01-06T11:35:11;3.60;99.90
11609;DHT22;5860;52.018;8.536;2024-01-06T11:42:48;3.60;99.90
11609;DHT22;5860;52.018;8.536;2024-01-06T11:45:24;3.60;99.90
11609;DHT22;5860;52.018;8.536;2024-01-06T11:47:55;3.60;99.90
11609;DHT22;5860;52.018;8.536;2024-01-06T11:50:23;3.60;99.90
11609;DHT22;5860;52.018;8.536;2024-01-06T11:52:50;3.60;99.90
11609;DHT22;5860;52.018;8.536;2024-01-06T11:55:18;3.70;99.90
11609;DHT22;5860;52.018;8.536;2024-01-06T11:57:48;3.60;99.90
11609;DHT22;5860;52.018;8.536;2024-01-06T12:00:17;3.60;99.90
11609;DHT22;5860;52.018;8.536;2024-01-06T12:02:45;3.60;99.90
11609;DHT22;5860;52.018;8.536;2024-01-06T12:05:18;3.70;99.90
11609;DHT22;5860;52.018;8.536;2024-01-06T12:07:56;3.70;99.90
11609;DHT22;5860;52.018;8.536;2024-01-06T12:10:24;3.70;99.90
11609;DHT22;5860;52.018;8.536;2024-01-06T12:13:02;3.70;99.90
11609;DHT22;5860;52.018;8.536;2024-01-06T12:15:31;3.80;99.90
11609;DHT22;5860;52.018;8.536;2024-01-06T12:17:59;3.90;99.90
11609;DHT22;5860;52.018;8.536;2024-01-06T12:20:26;3.80;99.90
11609;DHT22;5860;52.018;8.536;2024-01-06T12:22:56;3.80;99.90
11609;DHT22;5860;52.018;8.536;2024-01-06T12:25:23;3.80;99.90
11609;DHT22;5860;52.018;8.536;2024-01-06T12:27:52;3.80;99.90
11609;DHT22;5860;52.018;8.536;2024-01-06T12:30:22;3.80;99.90
11609;DHT22;5860;52.018;8.536;2024-01-06T12:32:50;3.80;99.90
11609;DHT22;5860;52.018;8.536;2024-01-06T12:35:20;3.80;99.90
11609;DHT22;5860;52.018;8.536;2024-01-06T12:37:48;3.80;99.90
11609;DHT22;5860;52.018;8.536;2024-01-06T12:40:16;3.80;99.90
11609;DHT22;5860;52.018;8.536;2024-01-06T12:42:44;3.80;99.90
11609;DHT22;5860;52.018;8.536;2024-01-06T12:45:12;3.80;99.90
11609;DHT22;5860;52.018;8.536;2024-01-06T12:47:40;3.90;99.90
11609;DHT22;5860;52.018;8.536;2024-01-06T12:50:08;3.90;99.90
11609;DHT22;5860;52.018;8.536;2024-01-06T12:52:35;3.90;99.90
11609;DHT22;5860;52.018;8.536;2024-01-06T12:55:02;3.90;99.90
11609;DHT22;5860;52.018;8.536;2024-01-06T12:57:30;3.90;99.90
11609;DHT22;5860;52.018;8.536;2024-01-06T12:59:57;3.90;99.90
11609;DHT22;5860;52.018;8.536;2024-01-06T13:02:24;4.00;99.90
11609;DHT22;5860;52.018;8.536;2024-01-06T13:04:51;4.00;99.90
11609;DHT22;5860;52.018;8.536;2024-01-06T13:07:18;4.10;99.90
11609;DHT22;5860;52.018;8.536;2024-01-06T13:09:45;4.00;99.90
11609;DHT22;5860;52.018;8.536;2024-01-06T13:12:12;3.90;99.90
11609;DHT22;5860;52.018;8.536;2024-01-06T13:14:39;3.90;99.90
11609;DHT22;5860;52.018;8.536;2024-01-06T13:17:06;3.80;99.90
11609;DHT22;5860;52.018;8.536;2024-01-06T13:19:33;3.90;99.90
11609;DHT22;5860;52.018;8.536;2024-01-06T13:22:00;3.90;99.90
11609;DHT22;5860;52.018;8.536;2024-01-06T13:24:28;3.90;99.90
11609;DHT22;5860;52.018;8.536;2024-01-06T13:26:55;4.00;99.90
11609;DHT22;5860;52.018;8.536;2024-01-06T13:29:21;3.90;99.90
11609;DHT22;5860;52.018;8.536;2024-01-06T13:31:48;3.90;99.90
11609;DHT22;5860;52.018;8.536;2024-01-06T13:34:16;3.80;99.90
11609;DHT22;5860;52.018;8.536;2024-01-06T13:36:43;3.80;99.90
11609;DHT22;5860;52.018;8.536;2024-01-06T13:39:10;3.90;99.90
11609;DHT22;5860;52.018;8.536;2024-01-06T13:41:47;3.80;99.90
11609;DHT22;5860;52.018;8.536;2024-01-06T13:44:16;3.80;99.90
11609;DHT22;5860;52.018;8.536;2024-01-06T13:46:43;3.90;99.90
11609;DHT22;5860;52.018;8.536;2024-01-06T13:49:11;3.90;99.90
11609;DHT22;5860;52.018;8.536;2024-01-06T13:51:39;3.90;99.90
11609;DHT22;5860;52.018;8.536;2024-01-06T13:54:06;3.90;99.90
11609;DHT22;5860;52.018;8.536;2024-01-06T13:56:34;3.80;99.90
11609;DHT22;5860;52.018;8.536;2024-01-06T13:59:00;3.80;99.90
11609;DHT22;5860;52.018;8.536;2024-01-06T14:01:28;3.70;99.90
11609;DHT22;5860;52.018;8.536;2024-01-06T14:03:55;3.70;99.90
11609;DHT22;5860;52.018;8.536;2024-01-06T14:06:28;3.70;99.90
11609;DHT22;5860;52.018;8.536;2024-01-06T14:08:57;3.80;99.90
11609;DHT22;5860;52.018;8.536;2024-01-06T14:11:25;3.80;99.90
11609;DHT22;5860;52.018;8.536;2024-01-06T14:13:53;3.70;99.90
11609;DHT22;5860;52.018;8.536;2024-01-06T14:16:20;3.70;99.90
11609;DHT22;5860;52.018;8.536;2024-01-06T14:18:49;3.70;99.90
11609;DHT22;5860;52.018;8.536;2024-01-06T14:21:16;3.60;99.90
11609;DHT22;5860;52.018;8.536;2024-01-06T14:23:46;3.60;99.90
11609;DHT22;5860;52.018;8.536;2024-01-06T14:26:18;3.50;99.90
11609;DHT22;5860;52.018;8.536;2024-01-06T14:28:48;3.50;99.90
11609;DHT22;5860;52.018;8.536;2024-01-06T14:31:15;3.40;99.90
11609;DHT22;5860;52.018;8.536;2024-01-06T14:33:43;3.40;99.90
11609;DHT22;5860;52.018;8.536;2024-01-06T14:36:10;3.30;99.90
11609;DHT22;5860;52.018;8.536;2024-01-06T14:38:37;3.40;99.90
11609;DHT22;5860;52.018;8.536;2024-01-06T14:41:04;3.30;99.90
11609;DHT22;5860;52.018;8.536;2024-01-06T14:43:31;3.30;99.90
11609;DHT22;5860;52.018;8.536;2024-01-06T14:45:58;3.30;99.90
11609;DHT22;5860;52.018;8.536;2024-01-06T14:48:25;3.30;99.90
11609;DHT22;5860;52.018;8.536;2024-01-06T14:50:53;3.40;99.90
11609;DHT22;5860;52.018;8.536;2024-01-06T14:53:19;3.30;99.90
11609;DHT22;5860;52.018;8.536;2024-01-06T14:55:46;3.30;99.90
11609;DHT22;5860;52.018;8.536;2024-01-06T14:58:13;3.30;99.90
11609;DHT22;5860;52.018;8.536;2024-01-06T15:00:40;3.30;99.90
11609;DHT22;5860;52.018;8.536;2024-01-06T15:03:07;3.30;99.90
11609;DHT22;5860;52.018;8.536;2024-01-06T15:05:34;3.30;99.90
11609;DHT22;5860;52.018;8.536;2024-01-06T15:08:01;3.30;99.90
11609;DHT22;5860;52.018;8.536;2024-01-06T15:10:28;3.40;99.90
11609;DHT22;5860;52.018;8.536;2024-01-06T15:12:55;3.40;99.90
11609;DHT22;5860;52.018;8.536;2024-01-06T15:15:22;3.50;99.90
11609;DHT22;5860;52.018;8.536;2024-01-06T15:17:49;3.60;99.90
11609;DHT22;5860;52.018;8.536;2024-01-06T15:20:16;3.70;99.90
11609;DHT22;5860;52.018;8.536;2024-01-06T15:22:43;3.70;99.90
11609;DHT22;5860;52.018;8.536;2024-01-06T15:25:10;3.60;99.90
11609;DHT22;5860;52.018;8.536;2024-01-06T15:27:37;3.60;99.90
11609;DHT22;5860;52.018;8.536;2024-01-06T15:30:05;3.60;99.90
11609;DHT22;5860;52.018;8.536;2024-01-06T15:32:35;3.50;99.90
11609;DHT22;5860;52.018;8.536;2024-01-06T15:35:03;3.50;99.90
11609;DHT22;5860;52.018;8.536;2024-01-06T15:37:30;3.60;99.90
11609;DHT22;5860;52.018;8.536;2024-01-06T15:39:58;3.50;99.90
11609;DHT22;5860;52.018;8.536;2024-01-06T15:42:26;3.50;99.90
11609;DHT22;5860;52.018;8.536;2024-01-06T15:44:53;3.50;99.90
11609;DHT22;5860;52.018;8.536;2024-01-06T15:47:19;3.50;99.90
11609;DHT22;5860;52.018;8.536;2024-01-06T15:49:47;3.40;99.90
11609;DHT22;5860;52.018;8.536;2024-01-06T15:52:13;3.30;99.90
11609;DHT22;5860;52.018;8.536;2024-01-06T15:54:40;3.30;99.90
11609;DHT22;5860;52.018;8.536;2024-01-06T15:57:07;3.30;99.90
11609;DHT22;5860;52.018;8.536;2024-01-06T15:59:35;3.30;99.90
11609;DHT22;5860;52.018;8.536;2024-01-06T16:02:02;3.30;99.90
11609;DHT22;5860;52.018;8.536;2024-01-06T16:04:29;3.20;99.90
11609;DHT22;5860;52.018;8.536;2024-01-06T16:06:56;3.20;99.90
11609;DHT22;5860;52.018;8.536;2024-01-06T16:09:23;3.30;99.90
11609;DHT22;5860;52.018;8.536;2024-01-06T16:11:52;3.20;99.90
11609;DHT22;5860;52.018;8.536;2024-01-06T16:14:22;3.10;99.90
11609;DHT22;5860;52.018;8.536;2024-01-06T16:16:53;3.10;99.90